Snow/Ice From: 16-12-2017 16:00 Until: 17-12-2017 16:00 warning for: Snow/Ice Level: Yellow info button

Although rather usual in this region, locally or potentially dangerous phenomena are expected. (such as local winds, summer thunderstorms, rising streams or high waves) Be aware and pay attention to the latest weather updates, especially if you carry out activities exposed to weather or close to a stream or shoreline. 


Meteo18 Weather Cam more information Meteo18 Weather Cam


Thunder radar more information blitzortung!


warning for Snow/Ice more information rain snow radar


Visit our other weather sites:

Template documentation
and downloads

And another site



Weather Underground History page Text

Daily Summary for October 28, 2017 Units:  Both    English   Metric
« Previous Day
Next Day »
Daily Weekly Monthly Yearly Custom
  High: Low: Average:
Temperature: 55 °F /  12.8 °C 37.2 °F /  2.9 °C 46.6 °F /  8.1 °C
Dew Point: 47.8 °F /  8.8 °C 36.1 °F /  2.3 °C 42.3 °F /  5.7 °C
Humidity: 96 % 63 % 86 %
Wind Speed: 7 mph /  11.3 km/h - 0.9 mph /  1.5 km/h
Wind Gust: 12 mph /  19.3 km/h - -
Wind:- - West
Pressure: 30.5 in /  1033.7 hPa 30.3 in /  1027.0 hPa -
Precipitation: 0.01 in /  0.3 mm    
Historical Graphs
 
 
Tabular Data for October 28, 2017
Time Temperature Dew Point Pressure Wind Wind Speed Wind Gust Humidity Rainfall Rate (Hourly)
00:02 47.5 °F /  8.6 °C 44.1 °F /  6.7 °C 30.5 in /  1033.7 hPa Calm   2 mph /  3.2 km/h 88 % 0 in /  0.0 mm
00:12 47.1 °F /  8.4 °C 43.7 °F /  6.5 °C 30.5 in /  1033.7 hPa NNW 1 mph /  1.6 km/h 2 mph /  3.2 km/h 88 % 0 in /  0.0 mm
00:17 47.3 °F /  8.5 °C 43.9 °F /  6.6 °C 30.5 in /  1033.7 hPa NW 1 mph /  1.6 km/h 1 mph /  1.6 km/h 88 % 0 in /  0.0 mm
00:22 47.1 °F /  8.4 °C 43.7 °F /  6.5 °C 30.5 in /  1033.7 hPa NNW 3 mph /  4.8 km/h 3 mph /  4.8 km/h 88 % 0 in /  0.0 mm
00:27 47.1 °F /  8.4 °C 43.7 °F /  6.5 °C 30.5 in /  1033.7 hPa Calm   2 mph /  3.2 km/h 88 % 0 in /  0.0 mm
00:32 47.1 °F /  8.4 °C 43.7 °F /  6.5 °C 30.5 in /  1033.7 hPa NNW 1 mph /  1.6 km/h 4 mph /  6.4 km/h 88 % 0 in /  0.0 mm
00:37 46.9 °F /  8.3 °C 43.5 °F /  6.4 °C 30.5 in /  1033.7 hPa NNE 2 mph /  3.2 km/h 4 mph /  6.4 km/h 88 % 0 in /  0.0 mm
00:42 47.1 °F /  8.4 °C 43.7 °F /  6.5 °C 30.5 in /  1033.7 hPa Calm   3 mph /  4.8 km/h 88 % 0 in /  0.0 mm
00:47 46.9 °F /  8.3 °C 43.5 °F /  6.4 °C 30.5 in /  1033.7 hPa North 1 mph /  1.6 km/h 3 mph /  4.8 km/h 88 % 0 in /  0.0 mm
00:52 46.8 °F /  8.2 °C 43.3 °F /  6.3 °C 30.5 in /  1033.7 hPa Calm   3 mph /  4.8 km/h 88 % 0 in /  0.0 mm
00:57 46.4 °F /  8.0 °C 43 °F /  6.1 °C 30.5 in /  1033.7 hPa Calm   1 mph /  1.6 km/h 88 % 0 in /  0.0 mm
01:02 46 °F /  7.8 °C 43 °F /  6.1 °C 30.5 in /  1033.7 hPa NNW 1 mph /  1.6 km/h 1 mph /  1.6 km/h 89 % 0 in /  0.0 mm
01:12 46 °F /  7.8 °C 43 °F /  6.1 °C 30.5 in /  1033.7 hPa Calm   1 mph /  1.6 km/h 89 % 0 in /  0.0 mm
01:17 45.9 °F /  7.7 °C 43.2 °F /  6.2 °C 30.5 in /  1033.7 hPa Calm   1 mph /  1.6 km/h 90 % 0 in /  0.0 mm
01:22 45.9 °F /  7.7 °C 43.2 °F /  6.2 °C 30.5 in /  1033.7 hPa Calm   1 mph /  1.6 km/h 90 % 0 in /  0.0 mm
01:32 45.9 °F /  7.7 °C 43.2 °F /  6.2 °C 30.5 in /  1033.7 hPa Calm   2 mph /  3.2 km/h 90 % 0 in /  0.0 mm
01:37 45.9 °F /  7.7 °C 43.2 °F /  6.2 °C 30.5 in /  1033.7 hPa Calm   2 mph /  3.2 km/h 90 % 0 in /  0.0 mm
01:42 45.7 °F /  7.6 °C 43 °F /  6.1 °C 30.5 in /  1033.7 hPa NW 1 mph /  1.6 km/h 2 mph /  3.2 km/h 90 % 0 in /  0.0 mm
01:52 45.3 °F /  7.4 °C 42.8 °F /  6.0 °C 30.5 in /  1033.7 hPa WNW 1 mph /  1.6 km/h 2 mph /  3.2 km/h 91 % 0 in /  0.0 mm
02:02 45.3 °F /  7.4 °C 42.8 °F /  6.0 °C 30.5 in /  1033.4 hPa Calm   2 mph /  3.2 km/h 91 % 0 in /  0.0 mm
02:12 44.8 °F /  7.1 °C 42.6 °F /  5.9 °C 30.5 in /  1033.4 hPa NW 1 mph /  1.6 km/h 2 mph /  3.2 km/h 92 % 0 in /  0.0 mm
02:17 44.4 °F /  6.9 °C 42.3 °F /  5.7 °C 30.5 in /  1033.4 hPa WNW 1 mph /  1.6 km/h 2 mph /  3.2 km/h 92 % 0 in /  0.0 mm
02:22 44.2 °F /  6.8 °C 42.1 °F /  5.6 °C 30.5 in /  1033.4 hPa WNW 2 mph /  3.2 km/h 2 mph /  3.2 km/h 92 % 0 in /  0.0 mm
02:32 44.2 °F /  6.8 °C 42.3 °F /  5.7 °C 30.5 in /  1033.1 hPa WNW 1 mph /  1.6 km/h 2 mph /  3.2 km/h 93 % 0 in /  0.0 mm
02:37 44.2 °F /  6.8 °C 42.3 °F /  5.7 °C 30.5 in /  1033.4 hPa NW 1 mph /  1.6 km/h 2 mph /  3.2 km/h 93 % 0 in /  0.0 mm
02:42 44.2 °F /  6.8 °C 42.3 °F /  5.7 °C 30.5 in /  1033.1 hPa NW 1 mph /  1.6 km/h 2 mph /  3.2 km/h 93 % 0 in /  0.0 mm
02:47 44.8 °F /  7.1 °C 43.2 °F /  6.2 °C 30.5 in /  1033.1 hPa NW 2 mph /  3.2 km/h 3 mph /  4.8 km/h 94 % 0 in /  0.0 mm
02:52 45 °F /  7.2 °C 43 °F /  6.1 °C 30.5 in /  1033.1 hPa NW 1 mph /  1.6 km/h 3 mph /  4.8 km/h 93 % 0 in /  0.0 mm
02:57 45 °F /  7.2 °C 42.8 °F /  6.0 °C 30.5 in /  1033.1 hPa NNW 2 mph /  3.2 km/h 3 mph /  4.8 km/h 92 % 0 in /  0.0 mm
03:02 45.1 °F /  7.3 °C 43 °F /  6.1 °C 30.5 in /  1033.1 hPa NW 1 mph /  1.6 km/h 3 mph /  4.8 km/h 92 % 0 in /  0.0 mm
03:12 45.1 °F /  7.3 °C 43 °F /  6.1 °C 30.5 in /  1033.1 hPa WNW 1 mph /  1.6 km/h 3 mph /  4.8 km/h 92 % 0 in /  0.0 mm
03:17 45.1 °F /  7.3 °C 43 °F /  6.1 °C 30.5 in /  1033.1 hPa Calm   3 mph /  4.8 km/h 92 % 0 in /  0.0 mm
03:32 44.1 °F /  6.7 °C 41.9 °F /  5.5 °C 30.5 in /  1033.1 hPa NW 2 mph /  3.2 km/h 2 mph /  3.2 km/h 92 % 0 in /  0.0 mm
03:37 44.2 °F /  6.8 °C 42.3 °F /  5.7 °C 30.5 in /  1032.7 hPa NW 1 mph /  1.6 km/h 2 mph /  3.2 km/h 93 % 0 in /  0.0 mm
03:42 44.4 °F /  6.9 °C 42.4 °F /  5.8 °C 30.5 in /  1032.7 hPa Calm   2 mph /  3.2 km/h 93 % 0 in /  0.0 mm
03:47 44.4 °F /  6.9 °C 42.4 °F /  5.8 °C 30.5 in /  1032.7 hPa Calm   2 mph /  3.2 km/h 93 % 0 in /  0.0 mm
03:52 44.2 °F /  6.8 °C 42.3 °F /  5.7 °C 30.5 in /  1032.7 hPa Calm   2 mph /  3.2 km/h 93 % 0 in /  0.0 mm
03:57 44.1 °F /  6.7 °C 41.9 °F /  5.5 °C 30.5 in /  1032.7 hPa Calm   2 mph /  3.2 km/h 92 % 0 in /  0.0 mm
04:02 43.9 °F /  6.6 °C 41.7 °F /  5.4 °C 30.5 in /  1032.4 hPa Calm   2 mph /  3.2 km/h 92 % 0 in /  0.0 mm
04:12 43.7 °F /  6.5 °C 41.7 °F /  5.4 °C 30.5 in /  1032.4 hPa WNW 2 mph /  3.2 km/h 2 mph /  3.2 km/h 93 % 0 in /  0.0 mm
04:17 43.5 °F /  6.4 °C 41.7 °F /  5.4 °C 30.5 in /  1032.4 hPa WNW 1 mph /  1.6 km/h 2 mph /  3.2 km/h 93 % 0 in /  0.0 mm
04:22 43.3 °F /  6.3 °C 41.5 °F /  5.3 °C 30.5 in /  1032.4 hPa WNW 1 mph /  1.6 km/h 2 mph /  3.2 km/h 93 % 0 in /  0.0 mm
04:32 43.3 °F /  6.3 °C 41.7 °F /  5.4 °C 30.5 in /  1032.4 hPa NW 1 mph /  1.6 km/h 2 mph /  3.2 km/h 94 % 0 in /  0.0 mm
04:42 43.3 °F /  6.3 °C 41.7 °F /  5.4 °C 30.5 in /  1032.4 hPa Calm   2 mph /  3.2 km/h 94 % 0 in /  0.0 mm
04:47 43.3 °F /  6.3 °C 41.7 °F /  5.4 °C 30.5 in /  1032.4 hPa Calm   2 mph /  3.2 km/h 94 % 0 in /  0.0 mm
04:52 43.3 °F /  6.3 °C 41.7 °F /  5.4 °C 30.5 in /  1032.4 hPa Calm   2 mph /  3.2 km/h 94 % 0 in /  0.0 mm
04:57 43.3 °F /  6.3 °C 41.7 °F /  5.4 °C 30.5 in /  1032.4 hPa WNW 1 mph /  1.6 km/h 3 mph /  4.8 km/h 94 % 0 in /  0.0 mm
05:02 43.3 °F /  6.3 °C 41.7 °F /  5.4 °C 30.5 in /  1032.4 hPa WNW 1 mph /  1.6 km/h 3 mph /  4.8 km/h 94 % 0 in /  0.0 mm
05:07 43.3 °F /  6.3 °C 41.7 °F /  5.4 °C 30.5 in /  1032.4 hPa WNW 1 mph /  1.6 km/h 2 mph /  3.2 km/h 94 % 0 in /  0.0 mm
05:17 43.5 °F /  6.4 °C 41.9 °F /  5.5 °C 30.5 in /  1032.4 hPa WNW 1 mph /  1.6 km/h 2 mph /  3.2 km/h 94 % 0 in /  0.0 mm
05:27 43.5 °F /  6.4 °C 41.9 °F /  5.5 °C 30.5 in /  1032.4 hPa WNW 1 mph /  1.6 km/h 2 mph /  3.2 km/h 94 % 0 in /  0.0 mm
05:32 43.5 °F /  6.4 °C 41.9 °F /  5.5 °C 30.5 in /  1032.4 hPa NW 2 mph /  3.2 km/h 2 mph /  3.2 km/h 94 % 0 in /  0.0 mm
05:42 43.5 °F /  6.4 °C 41.9 °F /  5.5 °C 30.5 in /  1032.4 hPa Calm   2 mph /  3.2 km/h 94 % 0 in /  0.0 mm
05:47 43.5 °F /  6.4 °C 41.9 °F /  5.5 °C 30.5 in /  1032.4 hPa WNW 1 mph /  1.6 km/h 2 mph /  3.2 km/h 94 % 0 in /  0.0 mm
05:52 43.3 °F /  6.3 °C 41.7 °F /  5.4 °C 30.5 in /  1032.1 hPa NW 1 mph /  1.6 km/h 2 mph /  3.2 km/h 94 % 0 in /  0.0 mm
05:57 43.5 °F /  6.4 °C 41.9 °F /  5.5 °C 30.5 in /  1032.1 hPa NW 2 mph /  3.2 km/h 2 mph /  3.2 km/h 94 % 0 in /  0.0 mm
06:02 43.3 °F /  6.3 °C 41.7 °F /  5.4 °C 30.5 in /  1032.1 hPa Calm   2 mph /  3.2 km/h 94 % 0 in /  0.0 mm
06:07 43.2 °F /  6.2 °C 41.5 °F /  5.3 °C 30.5 in /  1032.4 hPa WNW 1 mph /  1.6 km/h 3 mph /  4.8 km/h 94 % 0 in /  0.0 mm
06:12 43.2 °F /  6.2 °C 41.5 °F /  5.3 °C 30.5 in /  1032.4 hPa Calm   3 mph /  4.8 km/h 94 % 0 in /  0.0 mm
06:17 43.2 °F /  6.2 °C 41.9 °F /  5.5 °C 30.5 in /  1032.4 hPa Calm   2 mph /  3.2 km/h 95 % 0 in /  0.0 mm
06:22 43 °F /  6.1 °C 41.4 °F /  5.2 °C 30.5 in /  1032.4 hPa Calm   2 mph /  3.2 km/h 94 % 0 in /  0.0 mm
06:27 42.6 °F /  5.9 °C 41 °F /  5.0 °C 30.5 in /  1032.4 hPa Calm   1 mph /  1.6 km/h 94 % 0 in /  0.0 mm
06:32 42.8 °F /  6.0 °C 41.5 °F /  5.3 °C 30.5 in /  1032.4 hPa Calm   1 mph /  1.6 km/h 95 % 0 in /  0.0 mm
06:42 42.6 °F /  5.9 °C 41.4 °F /  5.2 °C 30.5 in /  1032.4 hPa Calm   1 mph /  1.6 km/h 95 % 0 in /  0.0 mm
06:47 42.4 °F /  5.8 °C 41.2 °F /  5.1 °C 30.5 in /  1032.4 hPa Calm   1 mph /  1.6 km/h 95 % 0 in /  0.0 mm
06:52 42.4 °F /  5.8 °C 41.2 °F /  5.1 °C 30.5 in /  1032.4 hPa Calm   2 mph /  3.2 km/h 95 % 0 in /  0.0 mm
06:57 42.3 °F /  5.7 °C 41 °F /  5.0 °C 30.5 in /  1032.4 hPa Calm   2 mph /  3.2 km/h 95 % 0 in /  0.0 mm
07:02 42.1 °F /  5.6 °C 40.8 °F /  4.9 °C 30.5 in /  1032.4 hPa North 1 mph /  1.6 km/h 2 mph /  3.2 km/h 95 % 0 in /  0.0 mm
07:12 41.5 °F /  5.3 °C 40.3 °F /  4.6 °C 30.5 in /  1032.4 hPa Calm   2 mph /  3.2 km/h 95 % 0 in /  0.0 mm
07:17 41.2 °F /  5.1 °C 39.9 °F /  4.4 °C 30.5 in /  1032.4 hPa Calm   2 mph /  3.2 km/h 95 % 0 in /  0.0 mm
07:22 40.6 °F /  4.8 °C 39 °F /  3.9 °C 30.5 in /  1032.4 hPa Calm   2 mph /  3.2 km/h 94 % 0 in /  0.0 mm
07:32 40.6 °F /  4.8 °C 39.4 °F /  4.1 °C 30.5 in /  1032.4 hPa Calm   1 mph /  1.6 km/h 95 % 0 in /  0.0 mm
07:42 40.6 °F /  4.8 °C 39.4 °F /  4.1 °C 30.5 in /  1032.4 hPa Calm   1 mph /  1.6 km/h 95 % 0 in /  0.0 mm
07:47 40.8 °F /  4.9 °C 39.7 °F /  4.3 °C 30.5 in /  1032.4 hPa Calm     96 % 0 in /  0.0 mm
07:52 41.2 °F /  5.1 °C 40.1 °F /  4.5 °C 30.5 in /  1032.4 hPa Calm     96 % 0 in /  0.0 mm
07:57 41 °F /  5.0 °C 39.9 °F /  4.4 °C 30.5 in /  1032.4 hPa Calm   1 mph /  1.6 km/h 96 % 0 in /  0.0 mm
08:02 40.6 °F /  4.8 °C 39.4 °F /  4.1 °C 30.5 in /  1032.4 hPa Calm   1 mph /  1.6 km/h 95 % 0 in /  0.0 mm
08:07 40.1 °F /  4.5 °C 38.8 °F /  3.8 °C 30.5 in /  1032.7 hPa Calm   1 mph /  1.6 km/h 95 % 0 in /  0.0 mm
08:12 39.9 °F /  4.4 °C 38.8 °F /  3.8 °C 30.5 in /  1032.4 hPa Calm   1 mph /  1.6 km/h 96 % 0 in /  0.0 mm
08:17 39.7 °F /  4.3 °C 38.5 °F /  3.6 °C 30.5 in /  1032.4 hPa Calm     95 % 0 in /  0.0 mm
08:22 39.6 °F /  4.2 °C 38.5 °F /  3.6 °C 30.5 in /  1032.4 hPa Calm     96 % 0 in /  0.0 mm
08:32 39 °F /  3.9 °C 37.9 °F /  3.3 °C 30.5 in /  1032.4 hPa Calm     96 % 0 in /  0.0 mm
08:42 38.8 °F /  3.8 °C 37.8 °F /  3.2 °C 30.5 in /  1032.4 hPa Calm     96 % 0.01 in /  0.3 mm
08:47 38.3 °F /  3.5 °C 37 °F /  2.8 °C 30.5 in /  1032.4 hPa Calm     95 % 0.01 in /  0.3 mm
08:52 37.9 °F /  3.3 °C 36.7 °F /  2.6 °C 30.5 in /  1032.7 hPa Calm     95 % 0.01 in /  0.3 mm
08:57 37.6 °F /  3.1 °C 36.3 °F /  2.4 °C 30.5 in /  1032.7 hPa Calm     95 % 0.01 in /  0.3 mm
09:02 37.2 °F /  2.9 °C 36.1 °F /  2.3 °C 30.5 in /  1032.7 hPa Calm     96 % 0.01 in /  0.3 mm
09:12 37.2 °F /  2.9 °C 36.1 °F /  2.3 °C 30.5 in /  1033.1 hPa Calm     96 % 0.01 in /  0.3 mm
09:22 37.6 °F /  3.1 °C 36.5 °F /  2.5 °C 30.5 in /  1033.1 hPa Calm     96 % 0.01 in /  0.3 mm
09:32 38.3 °F /  3.5 °C 37.2 °F /  2.9 °C 30.5 in /  1033.1 hPa Calm     96 % 0.01 in /  0.3 mm
09:37 38.7 °F /  3.7 °C 37.6 °F /  3.1 °C 30.5 in /  1033.1 hPa Calm     96 % 0 in /  0.0 mm
09:42 38.1 °F /  3.4 °C 36.9 °F /  2.7 °C 30.5 in /  1033.1 hPa Calm     95 % 0 in /  0.0 mm
09:52 37.8 °F /  3.2 °C 36.5 °F /  2.5 °C 30.5 in /  1033.1 hPa Calm     95 % 0 in /  0.0 mm
09:57 38.1 °F /  3.4 °C 37 °F /  2.8 °C 30.5 in /  1033.1 hPa Calm   1 mph /  1.6 km/h 96 % 0 in /  0.0 mm
10:02 38.3 °F /  3.5 °C 37.2 °F /  2.9 °C 30.5 in /  1033.1 hPa Calm   1 mph /  1.6 km/h 96 % 0 in /  0.0 mm
10:07 38.5 °F /  3.6 °C 37.4 °F /  3.0 °C 30.5 in /  1032.7 hPa Calm   1 mph /  1.6 km/h 96 % 0 in /  0.0 mm
10:12 39 °F /  3.9 °C 37.9 °F /  3.3 °C 30.5 in /  1033.1 hPa Calm   1 mph /  1.6 km/h 96 % 0 in /  0.0 mm
10:17 39.7 °F /  4.3 °C 38.7 °F /  3.7 °C 30.5 in /  1032.7 hPa Calm   1 mph /  1.6 km/h 96 % 0 in /  0.0 mm
10:22 40.3 °F /  4.6 °C 39.2 °F /  4.0 °C 30.5 in /  1033.1 hPa Calm   1 mph /  1.6 km/h 96 % 0 in /  0.0 mm
10:32 42.1 °F /  5.6 °C 41 °F /  5.0 °C 30.5 in /  1032.7 hPa Calm     96 % 0 in /  0.0 mm
10:42 43 °F /  6.1 °C 41.7 °F /  5.4 °C 30.5 in /  1032.7 hPa South 2 mph /  3.2 km/h   95 % 0 in /  0.0 mm
10:47 43.2 °F /  6.2 °C 41.5 °F /  5.3 °C 30.5 in /  1032.7 hPa Calm   2 mph /  3.2 km/h 94 % 0 in /  0.0 mm
10:52 43.5 °F /  6.4 °C 41.9 °F /  5.5 °C 30.5 in /  1032.7 hPa Calm   2 mph /  3.2 km/h 94 % 0 in /  0.0 mm
11:02 44.8 °F /  7.1 °C 43.2 °F /  6.2 °C 30.5 in /  1032.7 hPa Calm   2 mph /  3.2 km/h 94 % 0 in /  0.0 mm
11:12 46 °F /  7.8 °C 44.4 °F /  6.9 °C 30.5 in /  1032.4 hPa Calm   2 mph /  3.2 km/h 94 % 0 in /  0.0 mm
11:17 46.8 °F /  8.2 °C 45.1 °F /  7.3 °C 30.5 in /  1032.4 hPa Calm   2 mph /  3.2 km/h 94 % 0 in /  0.0 mm
11:22 47.3 °F /  8.5 °C 45.3 °F /  7.4 °C 30.5 in /  1032.4 hPa SSE 1 mph /  1.6 km/h 2 mph /  3.2 km/h 93 % 0 in /  0.0 mm
11:32 48 °F /  8.9 °C 45.9 °F /  7.7 °C 30.5 in /  1032.1 hPa Calm   2 mph /  3.2 km/h 92 % 0 in /  0.0 mm
11:42 48.7 °F /  9.3 °C 46.2 °F /  7.9 °C 30.5 in /  1032.1 hPa Calm   2 mph /  3.2 km/h 91 % 0 in /  0.0 mm
11:47 49.1 °F /  9.5 °C 46.2 °F /  7.9 °C 30.5 in /  1032.1 hPa SW 1 mph /  1.6 km/h 2 mph /  3.2 km/h 90 % 0 in /  0.0 mm
11:52 49.1 °F /  9.5 °C 46.6 °F /  8.1 °C 30.5 in /  1032.1 hPa Calm   2 mph /  3.2 km/h 91 % 0 in /  0.0 mm
11:57 49.1 °F /  9.5 °C 46.2 °F /  7.9 °C 30.5 in /  1032.1 hPa Calm   4 mph /  6.4 km/h 90 % 0 in /  0.0 mm
12:02 49.5 °F /  9.7 °C 46.9 °F /  8.3 °C 30.5 in /  1032.1 hPa SSE 1 mph /  1.6 km/h 4 mph /  6.4 km/h 91 % 0 in /  0.0 mm
12:07 49.6 °F /  9.8 °C 46.8 °F /  8.2 °C 30.5 in /  1032.1 hPa Calm   2 mph /  3.2 km/h 90 % 0 in /  0.0 mm
12:12 49.6 °F /  9.8 °C 46.8 °F /  8.2 °C 30.5 in /  1032.1 hPa SE 2 mph /  3.2 km/h 2 mph /  3.2 km/h 90 % 0 in /  0.0 mm
12:22 49.8 °F /  9.9 °C 46.9 °F /  8.3 °C 30.5 in /  1032.1 hPa Calm   3 mph /  4.8 km/h 90 % 0 in /  0.0 mm
12:27 50.2 °F /  10.1 °C 47.1 °F /  8.4 °C 30.5 in /  1032.4 hPa Calm   3 mph /  4.8 km/h 89 % 0 in /  0.0 mm
12:32 50.2 °F /  10.1 °C 47.1 °F /  8.4 °C 30.5 in /  1032.1 hPa Calm   3 mph /  4.8 km/h 89 % 0 in /  0.0 mm
12:37 50.4 °F /  10.2 °C 47.3 °F /  8.5 °C 30.5 in /  1032.1 hPa Calm   1 mph /  1.6 km/h 89 % 0 in /  0.0 mm
12:42 50.9 °F /  10.5 °C 47.8 °F /  8.8 °C 30.5 in /  1032.1 hPa Calm   1 mph /  1.6 km/h 89 % 0 in /  0.0 mm
12:47 51.3 °F /  10.7 °C 47.8 °F /  8.8 °C 30.5 in /  1032.1 hPa Calm   1 mph /  1.6 km/h 88 % 0 in /  0.0 mm
12:52 51.3 °F /  10.7 °C 47.5 °F /  8.6 °C 30.5 in /  1032.1 hPa Calm   1 mph /  1.6 km/h 87 % 0 in /  0.0 mm
12:57 51.3 °F /  10.7 °C 47.5 °F /  8.6 °C 30.5 in /  1031.7 hPa SSW 2 mph /  3.2 km/h 2 mph /  3.2 km/h 87 % 0 in /  0.0 mm
13:02 51.4 °F /  10.8 °C 47.7 °F /  8.7 °C 30.5 in /  1031.4 hPa SE 1 mph /  1.6 km/h 5 mph /  8.0 km/h 87 % 0 in /  0.0 mm
13:12 52 °F /  11.1 °C 46.9 °F /  8.3 °C 30.4 in /  1031.0 hPa Calm   5 mph /  8.0 km/h 83 % 0 in /  0.0 mm
13:17 52.3 °F /  11.3 °C 46.9 °F /  8.3 °C 30.4 in /  1031.0 hPa SSW 3 mph /  4.8 km/h 4 mph /  6.4 km/h 82 % 0 in /  0.0 mm
13:22 52.9 °F /  11.6 °C 46.9 °F /  8.3 °C 30.4 in /  1031.0 hPa Calm   4 mph /  6.4 km/h 80 % 0 in /  0.0 mm
13:32 52.9 °F /  11.6 °C 42.3 °F /  5.7 °C 30.4 in /  1030.7 hPa WNW 2 mph /  3.2 km/h 3 mph /  4.8 km/h 67 % 0 in /  0.0 mm
13:37 53.1 °F /  11.7 °C 42.4 °F /  5.8 °C 30.4 in /  1030.4 hPa West 3 mph /  4.8 km/h 6 mph /  9.7 km/h 67 % 0 in /  0.0 mm
13:42 53.2 °F /  11.8 °C 41.7 °F /  5.4 °C 30.4 in /  1030.7 hPa West 2 mph /  3.2 km/h 6 mph /  9.7 km/h 65 % 0 in /  0.0 mm
13:47 53.4 °F /  11.9 °C 41.2 °F /  5.1 °C 30.4 in /  1030.4 hPa WNW 2 mph /  3.2 km/h 6 mph /  9.7 km/h 63 % 0 in /  0.0 mm
13:52 53.8 °F /  12.1 °C 41.5 °F /  5.3 °C 30.4 in /  1030.7 hPa West 2 mph /  3.2 km/h 6 mph /  9.7 km/h 63 % 0 in /  0.0 mm
13:57 54 °F /  12.2 °C 42.1 °F /  5.6 °C 30.4 in /  1030.7 hPa WSW 4 mph /  6.4 km/h 9 mph /  14.5 km/h 64 % 0 in /  0.0 mm
14:02 54 °F /  12.2 °C 42.1 °F /  5.6 °C 30.4 in /  1030.7 hPa WNW 3 mph /  4.8 km/h 9 mph /  14.5 km/h 64 % 0 in /  0.0 mm
14:12 54 °F /  12.2 °C 42.8 °F /  6.0 °C 30.4 in /  1030.4 hPa North 7 mph /  11.3 km/h 9 mph /  14.5 km/h 66 % 0 in /  0.0 mm
14:22 53.4 °F /  11.9 °C 42.3 °F /  5.7 °C 30.4 in /  1030.4 hPa WNW 4 mph /  6.4 km/h 9 mph /  14.5 km/h 66 % 0 in /  0.0 mm
14:32 53.4 °F /  11.9 °C 42.8 °F /  6.0 °C 30.4 in /  1030.4 hPa WNW 5 mph /  8.0 km/h 9 mph /  14.5 km/h 67 % 0 in /  0.0 mm
14:37 53.4 °F /  11.9 °C 42.8 °F /  6.0 °C 30.4 in /  1030.4 hPa WNW 5 mph /  8.0 km/h 8 mph /  12.9 km/h 67 % 0 in /  0.0 mm
14:42 53.4 °F /  11.9 °C 42.8 °F /  6.0 °C 30.4 in /  1030.4 hPa WNW 1 mph /  1.6 km/h 8 mph /  12.9 km/h 67 % 0 in /  0.0 mm
14:52 53.4 °F /  11.9 °C 43.5 °F /  6.4 °C 30.4 in /  1030.4 hPa WNW 5 mph /  8.0 km/h 8 mph /  12.9 km/h 69 % 0 in /  0.0 mm
14:57 53.2 °F /  11.8 °C 44.1 °F /  6.7 °C 30.4 in /  1030.0 hPa West 2 mph /  3.2 km/h 9 mph /  14.5 km/h 71 % 0 in /  0.0 mm
15:02 53.6 °F /  12.0 °C 44.4 °F /  6.9 °C 30.4 in /  1030.0 hPa NNE 7 mph /  11.3 km/h 9 mph /  14.5 km/h 71 % 0 in /  0.0 mm
15:12 53.6 °F /  12.0 °C 44.1 °F /  6.7 °C 30.4 in /  1029.7 hPa NNW 1 mph /  1.6 km/h 10 mph /  16.1 km/h 70 % 0 in /  0.0 mm
15:17 53.8 °F /  12.1 °C 43.9 °F /  6.6 °C 30.4 in /  1029.7 hPa WNW 3 mph /  4.8 km/h 10 mph /  16.1 km/h 69 % 0 in /  0.0 mm
15:22 53.8 °F /  12.1 °C 43.2 °F /  6.2 °C 30.4 in /  1029.7 hPa NW 7 mph /  11.3 km/h 10 mph /  16.1 km/h 67 % 0 in /  0.0 mm
15:32 54.1 °F /  12.3 °C 43.3 °F /  6.3 °C 30.4 in /  1029.7 hPa WNW 2 mph /  3.2 km/h 12 mph /  19.3 km/h 67 % 0 in /  0.0 mm
15:37 54.5 °F /  12.5 °C 42.6 °F /  5.9 °C 30.4 in /  1029.3 hPa WNW 3 mph /  4.8 km/h 9 mph /  14.5 km/h 64 % 0 in /  0.0 mm
15:42 54.5 °F /  12.5 °C 42.6 °F /  5.9 °C 30.4 in /  1029.3 hPa WNW 6 mph /  9.7 km/h 9 mph /  14.5 km/h 64 % 0 in /  0.0 mm
15:52 54.3 °F /  12.4 °C 42.8 °F /  6.0 °C 30.4 in /  1029.3 hPa WSW 4 mph /  6.4 km/h 10 mph /  16.1 km/h 65 % 0 in /  0.0 mm
16:02 54.1 °F /  12.3 °C 43 °F /  6.1 °C 30.4 in /  1029.0 hPa WSW 4 mph /  6.4 km/h 9 mph /  14.5 km/h 66 % 0 in /  0.0 mm
16:12 54.3 °F /  12.4 °C 42.8 °F /  6.0 °C 30.4 in /  1028.7 hPa WNW 3 mph /  4.8 km/h 9 mph /  14.5 km/h 65 % 0 in /  0.0 mm
16:17 54.5 °F /  12.5 °C 43 °F /  6.1 °C 30.4 in /  1029.0 hPa WSW 3 mph /  4.8 km/h 8 mph /  12.9 km/h 65 % 0 in /  0.0 mm
16:22 54.9 °F /  12.7 °C 43.7 °F /  6.5 °C 30.4 in /  1028.7 hPa WSW 2 mph /  3.2 km/h 8 mph /  12.9 km/h 66 % 0 in /  0.0 mm
16:27 54.9 °F /  12.7 °C 43.3 °F /  6.3 °C 30.4 in /  1028.7 hPa West 2 mph /  3.2 km/h 7 mph /  11.3 km/h 65 % 0 in /  0.0 mm
16:32 54.7 °F /  12.6 °C 43.5 °F /  6.4 °C 30.4 in /  1028.7 hPa SW 3 mph /  4.8 km/h 7 mph /  11.3 km/h 66 % 0 in /  0.0 mm
16:37 54.9 °F /  12.7 °C 43.7 °F /  6.5 °C 30.4 in /  1028.7 hPa WSW 1 mph /  1.6 km/h 7 mph /  11.3 km/h 66 % 0 in /  0.0 mm
16:42 55 °F /  12.8 °C 43.9 °F /  6.6 °C 30.4 in /  1028.7 hPa WSW 3 mph /  4.8 km/h 7 mph /  11.3 km/h 66 % 0 in /  0.0 mm
16:52 54.9 °F /  12.7 °C 43.3 °F /  6.3 °C 30.4 in /  1028.7 hPa West 3 mph /  4.8 km/h 4 mph /  6.4 km/h 65 % 0 in /  0.0 mm
16:57 54.7 °F /  12.6 °C 43.5 °F /  6.4 °C 30.4 in /  1028.7 hPa West 1 mph /  1.6 km/h 7 mph /  11.3 km/h 66 % 0 in /  0.0 mm
17:02 54.7 °F /  12.6 °C 43.5 °F /  6.4 °C 30.4 in /  1028.7 hPa Calm   7 mph /  11.3 km/h 66 % 0 in /  0.0 mm
17:12 55 °F /  12.8 °C 43.5 °F /  6.4 °C 30.4 in /  1028.7 hPa West 4 mph /  6.4 km/h 7 mph /  11.3 km/h 65 % 0 in /  0.0 mm
17:17 54.9 °F /  12.7 °C 43.7 °F /  6.5 °C 30.4 in /  1028.7 hPa NW 2 mph /  3.2 km/h 6 mph /  9.7 km/h 66 % 0 in /  0.0 mm
17:22 54.7 °F /  12.6 °C 43.9 °F /  6.6 °C 30.4 in /  1028.7 hPa WSW 2 mph /  3.2 km/h 6 mph /  9.7 km/h 67 % 0 in /  0.0 mm
17:27 54.5 °F /  12.5 °C 43.7 °F /  6.5 °C 30.4 in /  1028.3 hPa West 3 mph /  4.8 km/h 8 mph /  12.9 km/h 67 % 0 in /  0.0 mm
17:32 54.5 °F /  12.5 °C 43.7 °F /  6.5 °C 30.4 in /  1028.3 hPa WNW 3 mph /  4.8 km/h 8 mph /  12.9 km/h 67 % 0 in /  0.0 mm
17:42 54.3 °F /  12.4 °C 43.5 °F /  6.4 °C 30.4 in /  1028.3 hPa WNW 5 mph /  8.0 km/h 8 mph /  12.9 km/h 67 % 0 in /  0.0 mm
17:47 54.1 °F /  12.3 °C 43.9 °F /  6.6 °C 30.4 in /  1028.3 hPa West 3 mph /  4.8 km/h 8 mph /  12.9 km/h 68 % 0 in /  0.0 mm
17:52 54.1 °F /  12.3 °C 44.2 °F /  6.8 °C 30.4 in /  1028.3 hPa SW 3 mph /  4.8 km/h 8 mph /  12.9 km/h 69 % 0 in /  0.0 mm
17:57 54 °F /  12.2 °C 44.1 °F /  6.7 °C 30.4 in /  1028.3 hPa West 3 mph /  4.8 km/h 8 mph /  12.9 km/h 69 % 0 in /  0.0 mm
18:02 53.8 °F /  12.1 °C 44.2 °F /  6.8 °C 30.4 in /  1028.3 hPa West 3 mph /  4.8 km/h 8 mph /  12.9 km/h 70 % 0 in /  0.0 mm
18:12 53.6 °F /  12.0 °C 44.1 °F /  6.7 °C 30.4 in /  1028.0 hPa West 3 mph /  4.8 km/h 5 mph /  8.0 km/h 70 % 0 in /  0.0 mm
18:17 53.4 °F /  11.9 °C 43.9 °F /  6.6 °C 30.4 in /  1028.0 hPa West 3 mph /  4.8 km/h 6 mph /  9.7 km/h 70 % 0 in /  0.0 mm
18:22 53.4 °F /  11.9 °C 43.9 °F /  6.6 °C 30.4 in /  1028.0 hPa West 2 mph /  3.2 km/h 5 mph /  8.0 km/h 70 % 0 in /  0.0 mm
18:32 52.9 °F /  11.6 °C 43.7 °F /  6.5 °C 30.4 in /  1028.0 hPa West 1 mph /  1.6 km/h 5 mph /  8.0 km/h 71 % 0 in /  0.0 mm
18:37 52.3 °F /  11.3 °C 43.5 °F /  6.4 °C 30.4 in /  1028.0 hPa Calm   5 mph /  8.0 km/h 72 % 0 in /  0.0 mm
18:47 51.6 °F /  10.9 °C 43.5 °F /  6.4 °C 30.4 in /  1028.0 hPa Calm   4 mph /  6.4 km/h 74 % 0 in /  0.0 mm
18:52 51.3 °F /  10.7 °C 43.5 °F /  6.4 °C 30.4 in /  1028.0 hPa West 1 mph /  1.6 km/h 2 mph /  3.2 km/h 75 % 0 in /  0.0 mm
18:57 51.1 °F /  10.6 °C 43.7 °F /  6.5 °C 30.4 in /  1028.0 hPa Calm   2 mph /  3.2 km/h 76 % 0 in /  0.0 mm
19:02 50.5 °F /  10.3 °C 43.5 °F /  6.4 °C 30.4 in /  1028.0 hPa Calm   2 mph /  3.2 km/h 77 % 0 in /  0.0 mm
19:12 49.6 °F /  9.8 °C 43.3 °F /  6.3 °C 30.4 in /  1028.0 hPa Calm   2 mph /  3.2 km/h 79 % 0 in /  0.0 mm
19:17 49.3 °F /  9.6 °C 43.3 °F /  6.3 °C 30.4 in /  1028.0 hPa Calm   1 mph /  1.6 km/h 80 % 0 in /  0.0 mm
19:22 49.3 °F /  9.6 °C 43.3 °F /  6.3 °C 30.4 in /  1028.0 hPa WSW 1 mph /  1.6 km/h 1 mph /  1.6 km/h 80 % 0 in /  0.0 mm
19:32 48.9 °F /  9.4 °C 43.3 °F /  6.3 °C 30.4 in /  1028.0 hPa West 1 mph /  1.6 km/h 2 mph /  3.2 km/h 81 % 0 in /  0.0 mm
19:42 48.4 °F /  9.1 °C 43.2 °F /  6.2 °C 30.4 in /  1028.3 hPa Calm   2 mph /  3.2 km/h 82 % 0 in /  0.0 mm
19:52 48 °F /  8.9 °C 43.2 °F /  6.2 °C 30.4 in /  1028.3 hPa Calm   1 mph /  1.6 km/h 83 % 0 in /  0.0 mm
19:57 47.8 °F /  8.8 °C 43.2 °F /  6.2 °C 30.4 in /  1028.3 hPa Calm     84 % 0 in /  0.0 mm
20:02 47.5 °F /  8.6 °C 42.8 °F /  6.0 °C 30.4 in /  1028.3 hPa Calm     84 % 0 in /  0.0 mm
20:12 47.3 °F /  8.5 °C 43 °F /  6.1 °C 30.4 in /  1028.3 hPa Calm     85 % 0 in /  0.0 mm
20:17 47.3 °F /  8.5 °C 43 °F /  6.1 °C 30.4 in /  1028.3 hPa Calm     85 % 0 in /  0.0 mm
20:22 47.1 °F /  8.4 °C 42.8 °F /  6.0 °C 30.4 in /  1028.3 hPa Calm     85 % 0 in /  0.0 mm
20:27 46.9 °F /  8.3 °C 42.6 °F /  5.9 °C 30.4 in /  1028.3 hPa Calm     85 % 0 in /  0.0 mm
20:32 46.8 °F /  8.2 °C 42.4 °F /  5.8 °C 30.4 in /  1028.3 hPa Calm     85 % 0 in /  0.0 mm
20:37 46.4 °F /  8.0 °C 42.4 °F /  5.8 °C 30.4 in /  1028.3 hPa Calm     86 % 0 in /  0.0 mm
20:42 46.2 °F /  7.9 °C 42.6 °F /  5.9 °C 30.4 in /  1028.3 hPa Calm     87 % 0 in /  0.0 mm
20:52 46 °F /  7.8 °C 42.4 °F /  5.8 °C 30.4 in /  1028.3 hPa Calm     87 % 0 in /  0.0 mm
21:02 45.9 °F /  7.7 °C 42.3 °F /  5.7 °C 30.4 in /  1028.3 hPa Calm     87 % 0 in /  0.0 mm
21:07 45.5 °F /  7.5 °C 41.9 °F /  5.5 °C 30.4 in /  1028.3 hPa Calm     87 % 0 in /  0.0 mm
21:12 45.7 °F /  7.6 °C 42.6 °F /  5.9 °C 30.4 in /  1028.3 hPa Calm     89 % 0 in /  0.0 mm
21:17 46 °F /  7.8 °C 43 °F /  6.1 °C 30.4 in /  1028.0 hPa Calm     89 % 0 in /  0.0 mm
21:22 45.7 °F /  7.6 °C 42.1 °F /  5.6 °C 30.4 in /  1028.0 hPa Calm     87 % 0 in /  0.0 mm
21:32 45.1 °F /  7.3 °C 42.1 °F /  5.6 °C 30.4 in /  1028.0 hPa Calm     89 % 0 in /  0.0 mm
21:42 44.8 °F /  7.1 °C 41.4 °F /  5.2 °C 30.4 in /  1028.3 hPa Calm   1 mph /  1.6 km/h 88 % 0 in /  0.0 mm
21:47 44.4 °F /  6.9 °C 41.7 °F /  5.4 °C 30.4 in /  1028.0 hPa Calm   1 mph /  1.6 km/h 90 % 0 in /  0.0 mm
21:52 44.4 °F /  6.9 °C 41.7 °F /  5.4 °C 30.4 in /  1028.0 hPa Calm   1 mph /  1.6 km/h 90 % 0 in /  0.0 mm
21:57 44.4 °F /  6.9 °C 41.7 °F /  5.4 °C 30.4 in /  1028.0 hPa Calm   1 mph /  1.6 km/h 90 % 0 in /  0.0 mm
22:02 44.4 °F /  6.9 °C 41.7 °F /  5.4 °C 30.4 in /  1028.0 hPa Calm   1 mph /  1.6 km/h 90 % 0 in /  0.0 mm
22:12 43.5 °F /  6.4 °C 40.8 °F /  4.9 °C 30.4 in /  1028.0 hPa Calm     90 % 0 in /  0.0 mm
22:17 43.3 °F /  6.3 °C 40.6 °F /  4.8 °C 30.4 in /  1028.0 hPa Calm     90 % 0 in /  0.0 mm
22:22 43 °F /  6.1 °C 40.3 °F /  4.6 °C 30.4 in /  1028.0 hPa South 1 mph /  1.6 km/h   90 % 0 in /  0.0 mm
22:27 42.8 °F /  6.0 °C 40.3 °F /  4.6 °C 30.4 in /  1028.0 hPa South 1 mph /  1.6 km/h 1 mph /  1.6 km/h 91 % 0 in /  0.0 mm
22:32 42.4 °F /  5.8 °C 39.9 °F /  4.4 °C 30.4 in /  1028.0 hPa SSE 1 mph /  1.6 km/h 1 mph /  1.6 km/h 91 % 0 in /  0.0 mm
22:42 42.3 °F /  5.7 °C 40.1 °F /  4.5 °C 30.4 in /  1028.0 hPa Calm   2 mph /  3.2 km/h 92 % 0 in /  0.0 mm
22:47 42.3 °F /  5.7 °C 40.1 °F /  4.5 °C 30.4 in /  1028.0 hPa Calm   2 mph /  3.2 km/h 92 % 0 in /  0.0 mm
22:52 42.1 °F /  5.6 °C 39.9 °F /  4.4 °C 30.4 in /  1028.0 hPa Calm   2 mph /  3.2 km/h 92 % 0 in /  0.0 mm
22:57 41.9 °F /  5.5 °C 39.7 °F /  4.3 °C 30.4 in /  1027.7 hPa Calm     92 % 0 in /  0.0 mm
23:02 41.9 °F /  5.5 °C 40.1 °F /  4.5 °C 30.4 in /  1027.7 hPa Calm     93 % 0 in /  0.0 mm
23:12 41.9 °F /  5.5 °C 40.1 °F /  4.5 °C 30.4 in /  1027.7 hPa Calm   1 mph /  1.6 km/h 93 % 0 in /  0.0 mm
23:17 41.7 °F /  5.4 °C 39.9 °F /  4.4 °C 30.4 in /  1027.7 hPa Calm   1 mph /  1.6 km/h 93 % 0 in /  0.0 mm
23:22 41.9 °F /  5.5 °C 40.3 °F /  4.6 °C 30.4 in /  1027.7 hPa Calm   1 mph /  1.6 km/h 94 % 0 in /  0.0 mm
23:27 41.9 °F /  5.5 °C 40.1 °F /  4.5 °C 30.4 in /  1027.7 hPa Calm   1 mph /  1.6 km/h 93 % 0 in /  0.0 mm
23:32 42.1 °F /  5.6 °C 40.3 °F /  4.6 °C 30.4 in /  1027.7 hPa Calm   1 mph /  1.6 km/h 93 % 0 in /  0.0 mm
23:37 42.3 °F /  5.7 °C 40.6 °F /  4.8 °C 30.4 in /  1027.7 hPa WSW 1 mph /  1.6 km/h 1 mph /  1.6 km/h 94 % 0 in /  0.0 mm
23:42 43 °F /  6.1 °C 41.4 °F /  5.2 °C 30.3 in /  1027.3 hPa Calm   1 mph /  1.6 km/h 94 % 0 in /  0.0 mm
23:47 43.2 °F /  6.2 °C 41.4 °F /  5.2 °C 30.3 in /  1027.3 hPa SW 1 mph /  1.6 km/h 2 mph /  3.2 km/h 93 % 0 in /  0.0 mm
23:52 42.8 °F /  6.0 °C 40.6 °F /  4.8 °C 30.3 in /  1027.3 hPa Calm   2 mph /  3.2 km/h 92 % 0 in /  0.0 mm
23:57 42.6 °F /  5.9 °C 40.5 °F /  4.7 °C 30.3 in /  1027.0 hPa Calm   1 mph /  1.6 km/h 92 % 0 in /  0.0 mm
Meteo18
Compliments of Weather Underground - 4 mb

Script developed by  Jim McMurry - jmcmurry@mwt.net Adapted for the template by  Wim van der Kuil - Leuven-Template.eu

You find our weather info also at:

European Weather Network

Weather Underground

Equipment we use:

Weather-station
Davis Vue

Weather-program
Meteohub

Weather-server
Raspberry PI 2 B+

Provider
1 and 1

Davis Vue

Meteohub

Raspberry PI 2 B+

1 and 1